createdAt,value
2018-09-18T00:02:57.107Z,94.20
2018-09-18T00:08:19.233Z,94.20
2018-09-18T00:13:41.064Z,94.20
2018-09-18T00:19:03.449Z,94.10
2018-09-18T00:24:25.950Z,94.00
2018-09-18T00:29:47.809Z,93.90
2018-09-18T00:35:10.017Z,93.50
2018-09-18T00:40:32.011Z,93.30
2018-09-18T00:45:54.106Z,93.00
2018-09-18T00:51:15.990Z,92.50
2018-09-18T00:56:38.120Z,92.50
2018-09-18T01:02:00.609Z,92.40
2018-09-18T01:07:22.519Z,91.80
2018-09-18T01:12:44.701Z,91.80
2018-09-18T01:18:06.953Z,91.90
2018-09-18T01:23:29.022Z,91.80
2018-09-18T01:28:51.603Z,91.70
2018-09-18T01:34:13.889Z,91.30
2018-09-18T01:39:36.475Z,91.50
2018-09-18T01:44:58.554Z,91.70
2018-09-18T01:50:20.765Z,92.00
2018-09-18T01:55:42.733Z,92.20
2018-09-18T02:01:05.224Z,92.10
2018-09-18T02:06:27.042Z,91.80
2018-09-18T02:11:49.130Z,91.30
2018-09-18T02:17:10.884Z,91.00
2018-09-18T02:22:33.166Z,90.80
2018-09-18T02:27:55.018Z,90.60
2018-09-18T02:33:17.111Z,90.90
2018-09-18T02:38:38.722Z,91.50
2018-09-18T02:44:00.902Z,91.60
2018-09-18T02:49:22.734Z,91.70
2018-09-18T02:54:45.127Z,91.50
2018-09-18T03:00:06.997Z,91.00
2018-09-18T03:05:29.366Z,91.10
2018-09-18T03:10:51.557Z,91.70
2018-09-18T03:16:13.576Z,92.50
2018-09-18T03:21:35.648Z,92.60
2018-09-18T03:26:57.623Z,93.10
2018-09-18T03:32:19.900Z,93.00
2018-09-18T03:37:41.776Z,93.10
2018-09-18T03:43:03.881Z,93.10
2018-09-18T03:48:25.681Z,93.10
2018-09-18T03:53:47.746Z,92.90
2018-09-18T03:59:09.582Z,92.70
2018-09-18T04:04:31.653Z,92.60
2018-09-18T04:09:53.566Z,92.30
2018-09-18T04:15:19.136Z,92.10
2018-09-18T04:20:41.323Z,91.90
2018-09-18T04:26:03.214Z,92.00
2018-09-18T04:31:25.261Z,91.80
2018-09-18T04:36:47.030Z,91.60
2018-09-18T04:42:09.498Z,91.80
2018-09-18T04:47:31.198Z,92.00
2018-09-18T04:52:53.261Z,92.30
2018-09-18T04:58:15.040Z,92.30
2018-09-18T05:03:37.092Z,92.50
2018-09-18T05:08:58.885Z,92.40
2018-09-18T05:14:21.223Z,92.50
2018-09-18T05:19:43.665Z,92.60
2018-09-18T05:25:06.357Z,92.70
2018-09-18T05:30:28.246Z,92.60
2018-09-18T05:35:49.957Z,92.90
2018-09-18T05:41:12.062Z,92.90
2018-09-18T05:46:33.847Z,92.50
2018-09-18T05:51:55.978Z,92.50
2018-09-18T05:57:17.832Z,92.50
2018-09-18T06:02:39.737Z,92.30
2018-09-18T06:08:01.509Z,92.60
2018-09-18T06:13:23.629Z,92.50
2018-09-18T06:18:45.685Z,92.50
2018-09-18T06:24:07.773Z,92.60
2018-09-18T06:29:30.438Z,92.60
2018-09-18T06:34:52.236Z,92.70
2018-09-18T06:40:14.238Z,92.70
2018-09-18T06:45:37.313Z,92.70
2018-09-18T06:50:59.723Z,92.60
2018-09-18T06:56:22.019Z,92.70
2018-09-18T07:01:43.955Z,92.40
2018-09-18T07:07:06.176Z,92.30
2018-09-18T07:12:27.968Z,92.20
2018-09-18T07:17:50.148Z,92.00
2018-09-18T07:23:14.347Z,92.00
2018-09-18T07:28:36.214Z,91.90
2018-09-18T07:33:58.239Z,91.70
2018-09-18T07:39:20.002Z,92.00
2018-09-18T07:44:42.099Z,91.70
2018-09-18T07:50:03.937Z,91.60
2018-09-18T07:55:26.205Z,91.50
2018-09-18T08:00:48.019Z,91.50
2018-09-18T08:06:10.118Z,91.60
2018-09-18T08:11:31.859Z,91.60
2018-09-18T08:16:53.962Z,91.70
2018-09-18T08:22:15.756Z,90.60
2018-09-18T08:27:38.021Z,90.20
2018-09-18T08:32:59.861Z,89.10
2018-09-18T08:38:22.078Z,89.10
2018-09-18T08:43:43.955Z,88.70
2018-09-18T08:49:06.073Z,88.80
2018-09-18T08:54:27.843Z,89.10
2018-09-18T08:59:50.111Z,89.70
2018-09-18T09:05:12.061Z,89.30
2018-09-18T09:10:34.207Z,88.20
2018-09-18T09:15:56.012Z,88.10
2018-09-18T09:21:18.231Z,87.80
2018-09-18T09:26:40.127Z,86.10
2018-09-18T09:32:04.250Z,85.10
2018-09-18T09:37:26.419Z,85.10
2018-09-18T09:42:49.115Z,85.70
2018-09-18T09:48:10.986Z,85.90
2018-09-18T09:53:33.099Z,86.60
2018-09-18T09:58:54.970Z,86.10
2018-09-18T10:04:18.658Z,86.70
2018-09-18T10:09:40.373Z,86.60
2018-09-18T10:15:02.520Z,86.10
2018-09-18T10:20:24.385Z,86.10
2018-09-18T10:25:46.440Z,81.90
2018-09-18T10:31:08.649Z,81.50
2018-09-18T10:36:30.821Z,81.00
2018-09-18T10:41:53.182Z,82.30
2018-09-18T10:47:14.978Z,82.00
2018-09-18T10:52:37.100Z,82.30
2018-09-18T10:57:59.007Z,82.20
2018-09-18T11:03:21.261Z,79.30
2018-09-18T11:08:43.411Z,79.80
2018-09-18T11:14:06.023Z,80.50
2018-09-18T11:19:28.215Z,80.50
2018-09-18T11:24:50.067Z,80.10
2018-09-18T11:30:12.175Z,80.20
2018-09-18T11:35:34.047Z,79.60
2018-09-18T11:40:56.549Z,79.50
2018-09-18T11:46:18.773Z,78.90
2018-09-18T11:51:40.645Z,79.30
2018-09-18T11:57:02.867Z,79.00
2018-09-18T12:02:24.619Z,77.50
2018-09-18T12:07:46.685Z,74.90
2018-09-18T12:13:08.587Z,74.90
2018-09-18T12:18:30.709Z,76.00
2018-09-18T12:23:52.677Z,76.10
2018-09-18T12:29:14.829Z,74.80
2018-09-18T12:34:36.643Z,75.20
2018-09-18T12:39:58.868Z,74.50
2018-09-18T12:45:20.703Z,74.30
2018-09-18T12:50:42.785Z,75.10
2018-09-18T12:56:04.634Z,76.10
2018-09-18T13:01:26.911Z,76.50
2018-09-18T13:06:49.457Z,74.70
2018-09-18T13:12:11.232Z,75.40
2018-09-18T13:17:33.622Z,74.40
2018-09-18T13:22:55.946Z,73.60
2018-09-18T13:28:17.966Z,73.10
2018-09-18T13:33:40.273Z,73.10
2018-09-18T13:39:02.263Z,73.90
2018-09-18T13:44:24.458Z,75.00
2018-09-18T13:49:47.198Z,75.10
2018-09-18T13:55:09.280Z,75.50
2018-09-18T14:00:31.257Z,76.30
2018-09-18T14:05:53.455Z,75.20
2018-09-18T14:11:15.309Z,74.20
2018-09-18T14:16:37.460Z,72.80
2018-09-18T14:22:02.224Z,74.90
2018-09-18T14:27:24.340Z,74.60
2018-09-18T14:32:46.318Z,74.20
2018-09-18T14:38:08.673Z,74.50
2018-09-18T14:43:32.499Z,73.20
2018-09-18T14:48:54.406Z,73.40
2018-09-18T14:54:17.158Z,75.80
2018-09-18T14:59:39.575Z,75.70
2018-09-18T15:05:01.887Z,76.10
2018-09-18T15:10:23.810Z,76.10
2018-09-18T15:15:46.002Z,76.90
2018-09-18T15:21:07.894Z,77.10
2018-09-18T15:26:30.538Z,78.60
2018-09-18T15:31:52.691Z,78.80
2018-09-18T15:37:14.577Z,80.30
2018-09-18T15:42:36.734Z,80.60
2018-09-18T15:47:58.696Z,80.80
2018-09-18T15:53:20.879Z,81.00
2018-09-18T15:58:43.787Z,80.80
2018-09-18T16:04:05.735Z,80.90
2018-09-18T16:09:27.996Z,81.70
2018-09-18T16:14:49.848Z,81.80
2018-09-18T16:20:11.896Z,81.80
2018-09-18T16:25:33.691Z,82.50
2018-09-18T16:30:56.941Z,82.50
2018-09-18T16:36:18.890Z,83.40
2018-09-18T16:41:41.125Z,83.80
2018-09-18T16:47:02.986Z,84.00
2018-09-18T16:52:25.150Z,85.20
2018-09-18T16:57:47.304Z,84.30
2018-09-18T17:03:09.398Z,84.60
2018-09-18T17:08:31.064Z,85.20
2018-09-18T17:13:53.213Z,84.90
2018-09-18T17:19:14.967Z,85.20
2018-09-18T17:24:37.101Z,86.10
2018-09-18T17:29:59.241Z,87.30
2018-09-18T17:35:21.261Z,87.90
2018-09-18T17:40:42.949Z,88.70
2018-09-18T17:46:05.092Z,89.20
2018-09-18T17:51:26.836Z,90.00
2018-09-18T17:56:48.943Z,90.30
2018-09-18T18:02:11.250Z,90.50
2018-09-18T18:07:33.819Z,90.50
2018-09-18T18:12:55.921Z,90.70
2018-09-18T18:18:17.809Z,90.90
2018-09-18T18:23:39.992Z,91.30
2018-09-18T18:29:01.719Z,91.10
2018-09-18T18:34:23.765Z,91.10
2018-09-18T18:39:45.579Z,91.00
2018-09-18T18:45:07.716Z,91.30
2018-09-18T18:50:29.473Z,91.30
2018-09-18T18:55:51.924Z,91.50
2018-09-18T19:01:14.359Z,91.40
2018-09-18T19:06:36.547Z,91.40
2018-09-18T19:11:58.947Z,91.50
2018-09-18T19:17:21.316Z,91.80
2018-09-18T19:22:43.392Z,92.00
2018-09-18T19:28:05.693Z,92.20
2018-09-18T19:33:28.567Z,92.40
2018-09-18T19:38:51.153Z,92.70
2018-09-18T19:44:14.064Z,92.50
2018-09-18T19:49:41.132Z,92.40
2018-09-18T19:55:03.960Z,92.20
2018-09-18T20:00:26.662Z,92.40
2018-09-18T20:05:49.201Z,92.40
2018-09-18T20:11:11.172Z,92.20
2018-09-18T20:16:33.928Z,92.50
2018-09-18T20:21:56.482Z,92.40
2018-09-18T20:27:18.709Z,92.40
2018-09-18T20:32:40.412Z,92.50
2018-09-18T20:38:02.610Z,92.60
2018-09-18T20:43:24.408Z,92.60
2018-09-18T20:48:46.710Z,92.80
2018-09-18T20:54:08.534Z,92.90
2018-09-18T20:59:32.196Z,92.80
2018-09-18T21:04:55.723Z,92.70
2018-09-18T21:10:17.777Z,92.60
2018-09-18T21:15:39.589Z,92.90
2018-09-18T21:21:01.896Z,93.20
2018-09-18T21:26:23.790Z,93.40
2018-09-18T21:31:45.823Z,93.20
2018-09-18T21:37:07.640Z,93.10
2018-09-18T21:42:29.828Z,93.00
2018-09-18T21:47:51.769Z,93.00
2018-09-18T21:53:14.914Z,93.10
2018-09-18T21:58:36.854Z,93.30
2018-09-18T22:03:58.608Z,93.30
2018-09-18T22:09:20.609Z,93.40
2018-09-18T22:14:42.438Z,93.40
2018-09-18T22:20:04.598Z,93.60
2018-09-18T22:25:26.547Z,93.70
2018-09-18T22:30:48.817Z,93.70
2018-09-18T22:36:11.119Z,94.00
2018-09-18T22:41:32.940Z,93.70
2018-09-18T22:46:55.020Z,93.60
2018-09-18T22:52:16.897Z,93.40
2018-09-18T22:57:39.145Z,93.40
2018-09-18T23:03:00.894Z,93.60
2018-09-18T23:08:22.981Z,93.70
2018-09-18T23:13:44.773Z,93.70
2018-09-18T23:19:06.995Z,94.10
2018-09-18T23:24:28.988Z,94.00
2018-09-18T23:29:51.133Z,93.90
2018-09-18T23:35:13.005Z,93.90
2018-09-18T23:40:35.636Z,93.90
2018-09-18T23:45:57.929Z,93.90
2018-09-18T23:51:19.597Z,94.10
2018-09-18T23:56:41.612Z,93.90
